Time;durP1;ratioP1;P1;durP2;ratioP2;P2;SDS_P1;SDS_P2;PMS_P1;PMS_P2;Temp;Humidity;BMP_temperature;BMP_pressure;BME280_temperature;BME280_humidity;BME280_pressure;Samples;Min_cycle;Max_cycle;Signal;HPM_P1;HPM_P2
2024/02/09 00:02:02;;;;;;;13.82;2.88;;;10.00;77.50;;;;;;4958400;28;20106;-76
2024/02/09 00:04:28;;;;;;;12.73;2.80;;;9.90;77.60;;;;;;4976013;28;20037;-77
2024/02/09 00:06:53;;;;;;;15.07;3.20;;;10.00;77.80;;;;;;4975746;28;20039;-75
2024/02/09 00:09:19;;;;;;;14.65;3.65;;;9.90;77.80;;;;;;4975438;28;20097;-75
2024/02/09 00:11:45;;;;;;;10.20;2.80;;;9.90;77.90;;;;;;4975374;28;20030;-76
2024/02/09 00:14:12;;;;;;;9.63;2.17;;;9.90;78.10;;;;;;4956296;29;20477;-76
2024/02/09 00:16:37;;;;;;;10.27;2.25;;;9.90;77.80;;;;;;4955849;29;20390;-76
2024/02/09 00:19:03;;;;;;;10.45;2.75;;;9.90;77.60;;;;;;4956111;29;20082;-73
2024/02/09 00:21:29;;;;;;;11.07;2.72;;;10.00;77.50;;;;;;4956420;29;20096;-75
2024/02/09 00:23:54;;;;;;;13.82;2.97;;;9.90;77.70;;;;;;4956087;29;20023;-75
2024/02/09 00:26:20;;;;;;;14.20;3.15;;;9.90;77.60;;;;;;4938768;29;20039;-75
2024/02/09 00:28:46;;;;;;;13.35;2.45;;;9.90;77.70;;;;;;4956111;29;20027;-75
2024/02/09 00:31:12;;;;;;;9.13;2.47;;;10.00;77.90;;;;;;4938768;29;20445;-76
2024/02/09 00:33:37;;;;;;;9.68;2.95;;;9.90;78.10;;;;;;4938712;29;20027;-75
2024/02/09 00:36:03;;;;;;;9.10;2.95;;;9.90;77.80;;;;;;4955896;29;20472;-74
2024/02/09 00:38:36;;;;;;;13.02;2.58;;;9.90;78.00;;;;;;4955910;29;20039;-74
2024/02/09 00:41:05;;;;;;;8.70;3.03;;;10.00;77.80;;;;;;4955814;29;20385;-75
2024/02/09 00:43:32;;;;;;;11.48;2.30;;;9.90;78.10;;;;;;4955713;29;20532;-74
2024/02/09 00:45:57;;;;;;;12.20;2.38;;;10.00;78.50;;;;;;4955629;29;20114;-76
2024/02/09 00:48:23;;;;;;;8.90;2.42;;;9.90;78.70;;;;;;4955453;29;20111;-75
2024/02/09 00:50:51;;;;;;;6.80;2.47;;;9.90;78.90;;;;;;4955643;29;20046;-76
2024/02/09 00:53:17;;;;;;;7.78;2.33;;;9.90;79.00;;;;;;4955720;29;20384;-76
2024/02/09 00:55:42;;;;;;;8.75;2.45;;;10.00;78.70;;;;;;4955510;29;20038;-73
2024/02/09 00:58:08;;;;;;;8.25;2.13;;;10.00;78.70;;;;;;4955490;29;20031;-73
2024/02/09 01:00:33;;;;;;;8.27;2.40;;;10.00;78.70;;;;;;4938131;29;20062;-74
2024/02/09 01:03:02;;;;;;;7.45;2.13;;;10.00;79.10;;;;;;4955689;29;20030;-74
2024/02/09 01:05:28;;;;;;;12.32;2.72;;;10.00;78.50;;;;;;4955235;29;20037;-73
2024/02/09 01:07:53;;;;;;;5.93;2.05;;;10.10;78.90;;;;;;4955072;29;20024;-73
2024/02/09 01:10:19;;;;;;;11.10;2.05;;;10.10;79.00;;;;;;4955201;29;20043;-72
2024/02/09 02:46:13;;;;;;;5.20;1.30;;;10.00;81.90;;;;;;4958146;29;20467;-72
2024/02/09 03:05:05;;;;;;;2.00;0.70;;;11.10;72.10;;;;;;4957539;29;20118;-73
2024/02/09 03:07:32;;;;;;;1.75;1.00;;;11.10;72.20;;;;;;4957566;29;20488;-72
2024/02/09 03:09:58;;;;;;;3.10;1.00;;;11.10;72.60;;;;;;4940448;29;20055;-73
2024/02/09 03:12:27;;;;;;;3.42;1.10;;;11.10;72.50;;;;;;4957351;29;20066;-74
2024/02/09 03:14:54;;;;;;;5.32;1.05;;;11.10;73.30;;;;;;4957386;29;20054;-74
2024/02/09 03:17:19;;;;;;;2.35;1.20;;;11.00;74.10;;;;;;4939934;29;20412;-74
2024/02/09 03:19:45;;;;;;;2.15;0.88;;;10.90;73.50;;;;;;4957462;29;20065;-73
2024/02/09 03:22:10;;;;;;;5.97;1.00;;;11.00;72.30;;;;;;4939986;29;20468;-72
2024/02/09 03:24:39;;;;;;;3.05;0.98;;;11.00;73.10;;;;;;4957487;29;20483;-73
2024/02/09 03:27:05;;;;;;;2.05;0.80;;;11.00;73.00;;;;;;4957354;29;20035;-73
2024/02/09 03:29:31;;;;;;;2.83;0.90;;;11.00;73.10;;;;;;4957036;29;20443;-73
2024/02/09 03:31:56;;;;;;;4.82;0.80;;;11.00;73.60;;;;;;4956990;29;20034;-73
2024/02/09 03:34:22;;;;;;;6.20;1.05;;;10.90;73.70;;;;;;4939782;29;20034;-73
2024/02/09 03:36:47;;;;;;;1.83;0.98;;;10.90;74.00;;;;;;4956939;29;20172;-73
2024/02/09 03:39:13;;;;;;;1.52;0.70;;;10.90;74.30;;;;;;4939960;29;20019;-73
2024/02/09 03:41:38;;;;;;;2.33;0.73;;;10.90;73.50;;;;;;4956344;28;20148;-73
2024/02/09 03:44:04;;;;;;;1.55;0.90;;;10.90;73.30;;;;;;4956757;29;20090;-72
2024/02/09 03:46:32;;;;;;;2.08;0.82;;;10.90;73.00;;;;;;4956673;29;20152;-71
2024/02/09 03:48:58;;;;;;;2.38;0.90;;;11.00;72.20;;;;;;4956613;29;20028;-72
2024/02/09 03:51:25;;;;;;;3.72;0.93;;;11.00;71.60;;;;;;4956686;29;20024;-71
2024/02/09 03:53:50;;;;;;;1.88;0.82;;;11.00;72.20;;;;;;4956616;29;20388;-72
2024/02/09 03:56:16;;;;;;;2.30;1.00;;;11.00;73.40;;;;;;4956603;29;20035;-71
2024/02/09 03:58:45;;;;;;;2.33;1.15;;;11.00;73.50;;;;;;4956641;29;20031;-72
2024/02/09 04:01:11;;;;;;;1.25;0.70;;;10.90;75.00;;;;;;4956493;29;20035;-72
2024/02/09 04:03:37;;;;;;;1.90;1.02;;;10.90;74.80;;;;;;4956395;29;20480;-72
2024/02/09 04:06:03;;;;;;;3.83;1.45;;;10.80;75.80;;;;;;4956308;29;20511;-73
2024/02/09 04:08:28;;;;;;;3.40;1.05;;;10.80;76.20;;;;;;4956300;29;20027;-72
2024/02/09 04:10:54;;;;;;;4.00;0.90;;;10.70;76.50;;;;;;4956398;29;20038;-72
2024/02/09 04:13:19;;;;;;;2.08;1.00;;;10.70;76.00;;;;;;4956332;29;20117;-72
2024/02/09 04:15:46;;;;;;;4.57;1.48;;;10.70;77.00;;;;;;4956164;29;20190;-72
2024/02/09 04:18:12;;;;;;;1.48;0.73;;;10.60;77.00;;;;;;4956271;29;20150;-73
2024/02/09 04:20:38;;;;;;;3.20;1.05;;;10.70;75.70;;;;;;4956154;29;20069;-72
2024/02/09 04:23:04;;;;;;;0.90;0.73;;;10.60;75.70;;;;;;4956203;29;20026;-72
2024/02/09 04:25:29;;;;;;;3.60;1.00;;;10.60;74.70;;;;;;4955929;29;20094;-72
2024/02/09 04:27:55;;;;;;;3.15;1.13;;;10.60;75.60;;;;;;4955806;29;20039;-71
2024/02/09 04:30:21;;;;;;;2.50;0.93;;;10.60;74.70;;;;;;4956069;29;20430;-71
2024/02/09 04:32:47;;;;;;;2.10;0.80;;;10.60;74.10;;;;;;4955885;29;20034;-71
2024/02/09 04:35:17;;;;;;;2.67;0.70;;;10.60;74.60;;;;;;4955804;29;20473;-71
2024/02/09 04:37:43;;;;;;;1.15;0.63;;;10.60;73.80;;;;;;4955831;29;20031;-71
2024/02/09 04:40:09;;;;;;;0.90;0.40;;;10.70;72.70;;;;;;4955877;29;20019;-74
2024/02/09 04:42:35;;;;;;;1.77;0.77;;;10.70;72.50;;;;;;4955697;29;20031;-71
2024/02/09 04:45:00;;;;;;;1.30;0.63;;;10.70;72.20;;;;;;4938108;29;20019;-70
2024/02/09 04:47:26;;;;;;;0.90;0.60;;;10.70;72.70;;;;;;4955578;29;20043;-71
2024/02/09 04:49:52;;;;;;;1.63;0.82;;;10.70;71.80;;;;;;4955302;29;20047;-70
2024/02/09 04:52:18;;;;;;;1.75;0.40;;;10.70;72.00;;;;;;4954681;28;20098;-71
2024/02/09 04:54:44;;;;;;;2.63;0.77;;;10.70;71.90;;;;;;4955671;29;20110;-71
2024/02/09 04:57:11;;;;;;;1.40;0.65;;;10.70;71.40;;;;;;4937922;29;20114;-71
2024/02/09 04:59:37;;;;;;;3.85;0.80;;;10.70;72.30;;;;;;4955582;29;20038;-71
2024/02/09 05:02:02;;;;;;;1.08;0.57;;;10.70;71.20;;;;;;4955362;29;20103;-72
2024/02/09 05:04:28;;;;;;;3.30;0.85;;;10.70;72.40;;;;;;4937953;29;20528;-71
2024/02/09 05:06:53;;;;;;;1.25;0.80;;;10.70;71.80;;;;;;4955117;29;20050;-72
2024/02/09 05:09:23;;;;;;;1.40;0.70;;;10.60;71.60;;;;;;4955207;29;20473;-71
2024/02/09 05:11:49;;;;;;;2.17;0.80;;;10.60;72.10;;;;;;4955124;29;20079;-72
2024/02/09 05:14:16;;;;;;;1.23;0.70;;;10.60;72.00;;;;;;4955138;29;20027;-71
2024/02/09 05:16:41;;;;;;;1.80;0.80;;;10.60;72.60;;;;;;4955043;29;20098;-72
2024/02/09 05:19:10;;;;;;;2.42;0.93;;;10.60;72.70;;;;;;4955142;29;20365;-72
2024/02/09 05:21:35;;;;;;;1.73;0.85;;;10.60;72.10;;;;;;4954986;29;20027;-71
2024/02/09 05:24:03;;;;;;;2.63;0.90;;;10.60;72.80;;;;;;4954963;29;20030;-72
2024/02/09 05:26:28;;;;;;;1.70;0.75;;;10.50;72.40;;;;;;4937639;29;20039;-72
2024/02/09 05:28:54;;;;;;;4.57;1.10;;;10.50;72.00;;;;;;4954890;29;20098;-71
2024/02/09 05:31:25;;;;;;;2.45;1.00;;;10.60;72.00;;;;;;4954846;29;20400;-71
2024/02/09 05:33:51;;;;;;;4.13;1.00;;;10.60;72.90;;;;;;4955172;29;20037;-71
2024/02/09 05:36:24;;;;;;;1.52;0.82;;;10.50;73.30;;;;;;4954883;29;20023;-71
2024/02/09 05:38:52;;;;;;;3.00;0.98;;;10.40;73.10;;;;;;4937845;29;20492;-71
2024/02/09 05:41:19;;;;;;;2.80;1.15;;;10.50;72.60;;;;;;4954784;29;20031;-71
2024/02/09 05:43:52;;;;;;;2.65;1.13;;;10.50;72.50;;;;;;4955066;29;20058;-71
2024/02/09 05:46:18;;;;;;;2.10;0.88;;;10.50;72.80;;;;;;4954798;29;20035;-71
2024/02/09 05:48:44;;;;;;;3.17;1.10;;;10.40;72.10;;;;;;4937400;29;20023;-72
2024/02/09 05:51:14;;;;;;;2.88;0.85;;;10.50;72.00;;;;;;4954590;29;20552;-71
2024/02/09 05:53:40;;;;;;;2.38;1.13;;;10.50;72.10;;;;;;4954895;29;20039;-72
2024/02/09 05:56:17;;;;;;;3.53;1.10;;;10.50;72.10;;;;;;4954677;29;20055;-71
2024/02/09 05:58:43;;;;;;;3.63;1.17;;;10.50;72.00;;;;;;4954926;29;20033;-72
2024/02/09 06:01:09;;;;;;;1.45;0.90;;;10.50;71.80;;;;;;4954892;29;20114;-72
2024/02/09 06:03:34;;;;;;;4.40;0.85;;;10.60;72.00;;;;;;4955121;28;20074;-71
2024/02/09 06:06:02;;;;;;;3.65;1.27;;;10.60;71.10;;;;;;4958497;29;20565;-72
2024/02/09 06:08:27;;;;;;;7.00;0.90;;;10.60;71.50;;;;;;4958460;29;20114;-71
2024/02/09 06:10:53;;;;;;;5.90;1.52;;;10.60;71.40;;;;;;4958507;29;20110;-71
2024/02/09 06:13:18;;;;;;;2.00;1.00;;;10.60;71.00;;;;;;4958391;29;20107;-71
2024/02/09 06:15:44;;;;;;;3.17;1.05;;;10.60;70.50;;;;;;4958322;29;20058;-71
2024/02/09 06:18:09;;;;;;;3.08;1.20;;;10.70;70.60;;;;;;4958334;29;20031;-72
2024/02/09 06:20:35;;;;;;;3.95;1.13;;;10.70;71.10;;;;;;4958175;29;20023;-72
2024/02/09 06:23:01;;;;;;;2.65;1.20;;;10.70;70.70;;;;;;4958219;29;20050;-71
2024/02/09 06:25:27;;;;;;;5.47;1.35;;;10.60;71.60;;;;;;4940960;29;20374;-71
2024/02/09 06:27:55;;;;;;;4.05;1.20;;;10.60;71.10;;;;;;4958111;29;20026;-72
2024/02/09 06:30:21;;;;;;;2.63;1.10;;;10.70;71.10;;;;;;4958137;29;20469;-71
2024/02/09 06:32:46;;;;;;;3.75;1.20;;;10.70;71.70;;;;;;4958024;29;20031;-71
2024/02/09 06:35:12;;;;;;;3.50;0.98;;;10.70;71.50;;;;;;4958198;29;20037;-71
2024/02/09 06:37:37;;;;;;;4.28;1.40;;;10.70;71.20;;;;;;4957918;29;20027;-71
2024/02/09 06:40:03;;;;;;;5.07;1.05;;;10.60;71.60;;;;;;4957827;29;20035;-71
2024/02/09 06:42:29;;;;;;;5.07;1.30;;;10.60;71.90;;;;;;4957980;29;20027;-71
2024/02/09 06:44:54;;;;;;;3.75;1.10;;;10.60;71.90;;;;;;4957876;29;20067;-71
2024/02/09 06:47:21;;;;;;;3.45;1.20;;;10.60;72.50;;;;;;4957762;29;20043;-73
2024/02/09 06:49:47;;;;;;;2.50;1.00;;;10.60;71.60;;;;;;4957576;29;20033;-72
2024/02/09 06:52:12;;;;;;;3.28;1.35;;;10.60;71.50;;;;;;4940458;29;20031;-72
2024/02/09 06:54:39;;;;;;;13.55;2.38;;;10.60;72.40;;;;;;4957581;29;20061;-71
2024/02/09 06:57:05;;;;;;;2.92;1.40;;;10.60;71.70;;;;;;4957539;29;20027;-72
2024/02/09 06:59:31;;;;;;;2.83;0.93;;;10.60;71.30;;;;;;4957911;29;20167;-72
2024/02/09 07:01:59;;;;;;;5.85;1.50;;;10.80;69.50;;;;;;4957191;29;20492;-71
2024/02/09 07:04:25;;;;;;;2.67;1.27;;;10.70;70.60;;;;;;4957705;29;20027;-72
2024/02/09 07:06:53;;;;;;;4.13;1.92;;;10.80;69.10;;;;;;4957748;29;20054;-72
2024/02/09 07:09:20;;;;;;;5.97;2.10;;;10.80;70.30;;;;;;4957530;29;20109;-71
2024/02/09 07:11:49;;;;;;;5.43;1.65;;;10.80;70.50;;;;;;4957487;29;20441;-71
2024/02/09 07:14:18;;;;;;;4.47;1.35;;;10.80;70.40;;;;;;4957522;29;20023;-74
2024/02/09 07:16:46;;;;;;;4.75;1.30;;;10.80;70.80;;;;;;4956226;28;20461;-72
2024/02/09 07:19:13;;;;;;;5.15;1.48;;;10.80;70.40;;;;;;4939752;29;20027;-74
2024/02/09 07:21:39;;;;;;;6.80;1.90;;;10.70;70.80;;;;;;4956933;29;20027;-72
2024/02/09 07:24:05;;;;;;;4.40;1.35;;;10.70;71.00;;;;;;4957066;29;20054;-72
2024/02/09 07:26:31;;;;;;;2.33;1.23;;;10.80;68.60;;;;;;4957127;29;20050;-72
2024/02/09 07:28:57;;;;;;;3.08;0.95;;;10.90;67.50;;;;;;4939966;29;20023;-73
2024/02/09 07:31:23;;;;;;;3.42;1.17;;;10.90;67.60;;;;;;4956790;28;20039;-73
2024/02/09 07:33:49;;;;;;;5.20;1.17;;;11.00;66.70;;;;;;4956927;29;20027;-72
2024/02/09 07:36:15;;;;;;;5.00;1.90;;;11.00;68.80;;;;;;4956808;29;20083;-72
2024/02/09 07:38:40;;;;;;;4.63;1.25;;;11.10;67.20;;;;;;4956667;29;20027;-73
2024/02/09 07:41:10;;;;;;;1.77;1.02;;;11.10;65.90;;;;;;4956752;29;20031;-71
2024/02/09 07:43:35;;;;;;;2.67;1.13;;;11.20;65.50;;;;;;4956646;29;20043;-72
2024/02/09 07:46:01;;;;;;;4.15;1.20;;;11.20;66.90;;;;;;4956596;29;20047;-72
2024/02/09 07:48:28;;;;;;;3.70;1.20;;;11.20;65.50;;;;;;4956731;29;20027;-72
2024/02/09 07:50:54;;;;;;;7.18;1.63;;;11.30;64.20;;;;;;4939738;29;20487;-72
2024/02/09 07:53:19;;;;;;;5.13;1.55;;;11.40;65.30;;;;;;4956612;29;20027;-71
2024/02/09 07:55:45;;;;;;;3.42;1.20;;;11.30;67.40;;;;;;4956732;29;20019;-72
2024/02/09 07:58:11;;;;;;;2.88;1.00;;;11.30;67.30;;;;;;4956447;29;20385;-71
2024/02/09 08:00:36;;;;;;;3.47;1.13;;;11.30;66.00;;;;;;4956495;29;20118;-73
2024/02/09 08:03:02;;;;;;;5.35;1.55;;;11.20;66.20;;;;;;4956237;29;20086;-72
2024/02/09 08:05:27;;;;;;;4.55;1.77;;;11.30;66.10;;;;;;4956179;29;20027;-72
2024/02/09 08:07:53;;;;;;;6.13;1.20;;;11.40;64.70;;;;;;4956198;29;20039;-72
2024/02/09 08:10:18;;;;;;;3.40;1.17;;;11.50;62.60;;;;;;4956539;29;20019;-72
2024/02/09 08:12:44;;;;;;;3.97;1.35;;;11.50;62.70;;;;;;4956202;29;20067;-72
2024/02/09 08:15:11;;;;;;;2.53;0.85;;;11.60;64.10;;;;;;4955933;29;20272;-72
2024/02/09 08:17:45;;;;;;;2.63;1.15;;;11.60;63.20;;;;;;4956110;29;20035;-72
2024/02/09 08:20:10;;;;;;;4.55;1.38;;;11.60;62.60;;;;;;4956181;29;20039;-71
2024/02/09 08:22:38;;;;;;;2.53;1.13;;;11.60;62.50;;;;;;4938814;29;20361;-72
2024/02/09 08:25:04;;;;;;;4.57;1.02;;;11.70;63.20;;;;;;4956057;29;20071;-73
2024/02/09 08:27:29;;;;;;;1.67;0.90;;;11.70;62.50;;;;;;4955741;28;20468;-72
2024/02/09 08:29:56;;;;;;;4.35;1.30;;;11.80;62.00;;;;;;4955758;29;20032;-72
2024/02/09 08:32:27;;;;;;;5.05;1.02;;;11.80;62.70;;;;;;4955355;29;20028;-73
2024/02/09 08:34:52;;;;;;;3.75;0.98;;;11.90;62.20;;;;;;4955802;29;20027;-72
2024/02/09 08:37:19;;;;;;;4.82;1.50;;;11.90;61.50;;;;;;4938200;29;20024;-72
2024/02/09 08:39:46;;;;;;;4.95;1.40;;;11.90;61.50;;;;;;4955711;29;20106;-73
2024/02/09 08:42:15;;;;;;;3.20;1.50;;;12.00;61.60;;;;;;4955442;29;20020;-73
2024/02/09 08:44:41;;;;;;;3.72;0.98;;;11.90;63.30;;;;;;4938625;29;20071;-73
2024/02/09 08:47:09;;;;;;;2.58;0.93;;;11.90;62.70;;;;;;4938223;29;20568;-76
2024/02/09 08:49:36;;;;;;;3.30;1.27;;;12.00;63.00;;;;;;4938289;29;20055;-75
2024/02/09 08:52:02;;;;;;;2.90;1.00;;;12.10;64.70;;;;;;4937959;29;20544;-74
2024/02/09 08:54:29;;;;;;;1.90;1.02;;;12.30;62.50;;;;;;4938137;29;20031;-74
2024/02/09 08:56:57;;;;;;;5.25;1.20;;;12.40;61.60;;;;;;4955471;29;20019;-75
2024/02/09 08:59:23;;;;;;;3.13;1.00;;;12.50;59.90;;;;;;4938209;29;20349;-76
2024/02/09 09:01:48;;;;;;;3.42;1.00;;;12.60;58.10;;;;;;4938260;29;20063;-76
2024/02/09 09:04:14;;;;;;;2.85;1.20;;;12.70;58.40;;;;;;4938515;29;20031;-75
2024/02/09 09:06:43;;;;;;;4.13;1.15;;;12.70;60.80;;;;;;4937639;29;20408;-72
2024/02/09 09:09:09;;;;;;;2.67;0.98;;;12.50;57.20;;;;;;4937963;29;20023;-72
2024/02/09 09:11:36;;;;;;;3.30;1.27;;;12.60;57.90;;;;;;4955066;29;20035;-73
2024/02/09 09:14:03;;;;;;;4.22;0.98;;;12.60;57.80;;;;;;4954386;29;20409;-72
2024/02/09 09:16:29;;;;;;;3.70;1.05;;;12.70;58.50;;;;;;4954711;29;20053;-73
2024/02/09 09:18:54;;;;;;;3.30;0.70;;;12.60;56.70;;;;;;4954864;29;20019;-72
2024/02/09 09:21:20;;;;;;;1.65;0.93;;;12.60;58.20;;;;;;4954962;29;20068;-72
2024/02/09 09:23:45;;;;;;;2.20;0.82;;;12.60;57.70;;;;;;4954829;29;20288;-72
2024/02/09 09:26:11;;;;;;;4.13;1.23;;;12.60;57.60;;;;;;4954598;29;20062;-73
2024/02/09 09:28:36;;;;;;;2.72;1.17;;;12.70;58.50;;;;;;4961911;28;20098;-72
2024/02/09 09:31:02;;;;;;;2.28;0.95;;;12.70;58.30;;;;;;4974133;28;20041;-72
2024/02/09 09:33:28;;;;;;;2.67;1.13;;;12.60;58.00;;;;;;4956868;28;20487;-72
2024/02/09 09:35:54;;;;;;;2.30;0.88;;;12.50;59.20;;;;;;4973976;28;20027;-74
2024/02/09 09:38:21;;;;;;;2.90;1.00;;;12.50;59.00;;;;;;4973586;28;20023;-72
2024/02/09 09:40:48;;;;;;;1.75;1.00;;;12.50;58.90;;;;;;4972595;28;20037;-72
2024/02/09 09:43:17;;;;;;;6.32;1.00;;;12.60;58.30;;;;;;4974051;28;20030;-72
2024/02/09 09:45:49;;;;;;;2.85;1.13;;;12.50;58.60;;;;;;4973907;28;20054;-73
2024/02/09 09:48:16;;;;;;;2.50;0.95;;;12.60;59.50;;;;;;4973959;28;20503;-73
2024/02/09 09:50:42;;;;;;;5.10;1.10;;;12.50;59.40;;;;;;4974017;28;20085;-72
2024/02/09 09:53:14;;;;;;;3.92;1.15;;;12.60;59.30;;;;;;4974115;28;20041;-72
2024/02/09 09:55:42;;;;;;;3.33;1.08;;;12.60;59.30;;;;;;4973944;28;20472;-72
2024/02/09 09:58:10;;;;;;;3.30;0.88;;;12.60;58.60;;;;;;4973965;28;20383;-73
2024/02/09 10:00:35;;;;;;;4.05;0.95;;;12.60;59.40;;;;;;4974051;28;20027;-73
2024/02/09 10:03:04;;;;;;;4.70;0.90;;;12.60;58.90;;;;;;4974140;28;20026;-72
2024/02/09 10:05:30;;;;;;;3.55;1.00;;;12.60;59.30;;;;;;4974254;28;20027;-72
2024/02/09 10:07:57;;;;;;;1.77;1.05;;;12.60;58.40;;;;;;4980983;28;20081;-72
2024/02/09 10:10:24;;;;;;;3.67;1.10;;;12.60;58.70;;;;;;4976380;28;20034;-73
2024/02/09 10:13:11;;;;;;;2.50;0.93;;;12.80;58.90;;;;;;4973928;28;20031;-72
2024/02/09 10:15:37;;;;;;;3.25;1.10;;;12.80;57.60;;;;;;4973482;28;20515;-73
2024/02/09 10:18:03;;;;;;;2.40;1.40;;;12.80;58.40;;;;;;4973905;28;20046;-74
2024/02/09 10:20:29;;;;;;;4.88;1.33;;;12.80;58.40;;;;;;4974056;28;20026;-73
2024/02/09 10:22:54;;;;;;;5.00;1.08;;;12.90;57.30;;;;;;4973527;28;20035;-73
2024/02/09 10:25:21;;;;;;;2.33;0.90;;;12.90;56.60;;;;;;4973504;28;20069;-73
2024/02/09 10:27:53;;;;;;;4.05;1.10;;;12.90;57.00;;;;;;4973728;28;20102;-73
2024/02/09 10:30:18;;;;;;;1.60;1.00;;;12.90;57.10;;;;;;4979582;28;20054;-73
2024/02/09 10:32:45;;;;;;;4.45;0.90;;;12.90;56.60;;;;;;4973747;28;20031;-76
2024/02/09 10:35:10;;;;;;;2.80;1.10;;;12.90;56.70;;;;;;4973464;28;20034;-73
2024/02/09 10:37:37;;;;;;;4.63;1.23;;;12.90;57.40;;;;;;4956142;28;20035;-73
2024/02/09 10:40:05;;;;;;;1.55;1.00;;;12.90;57.90;;;;;;4973314;28;20027;-73
2024/02/09 10:42:34;;;;;;;3.40;0.88;;;12.90;56.10;;;;;;4973594;28;20108;-73
2024/02/09 10:45:00;;;;;;;2.92;0.80;;;12.90;57.10;;;;;;4973457;28;20050;-73
2024/02/09 10:47:26;;;;;;;4.40;1.27;;;12.90;56.40;;;;;;4973427;28;20037;-73
2024/02/09 10:49:56;;;;;;;4.32;1.42;;;13.00;56.70;;;;;;4973476;28;20019;-72
2024/02/09 10:52:25;;;;;;;2.08;1.02;;;12.90;56.70;;;;;;4976596;28;20080;-73
2024/02/09 10:54:56;;;;;;;3.55;1.15;;;12.90;56.00;;;;;;4976955;28;20158;-73
2024/02/09 10:57:24;;;;;;;2.75;1.08;;;12.90;56.50;;;;;;4977302;28;20066;-72
2024/02/09 10:59:50;;;;;;;2.63;1.13;;;12.80;56.90;;;;;;4976780;28;20104;-73
2024/02/09 11:02:16;;;;;;;2.08;0.82;;;12.80;56.80;;;;;;4976850;28;20113;-73
2024/02/09 11:04:42;;;;;;;5.97;1.17;;;12.80;56.50;;;;;;4976601;28;20087;-73
2024/02/09 11:07:09;;;;;;;2.13;1.10;;;12.80;56.90;;;;;;4976780;28;20053;-73
2024/02/09 11:09:36;;;;;;;3.03;0.90;;;12.80;57.20;;;;;;4976497;28;20515;-74
2024/02/09 11:12:04;;;;;;;3.88;0.95;;;12.70;57.00;;;;;;4976478;28;20488;-73
2024/02/09 11:14:32;;;;;;;4.22;1.30;;;12.70;57.30;;;;;;4976590;28;20027;-73
2024/02/09 11:17:03;;;;;;;2.58;0.98;;;12.70;57.40;;;;;;4976446;28;20049;-74
2024/02/09 11:19:28;;;;;;;4.35;1.00;;;12.60;57.60;;;;;;4976473;28;20078;-74
2024/02/09 11:22:00;;;;;;;6.05;1.50;;;12.60;57.70;;;;;;4976401;28;20034;-72
2024/02/09 11:24:26;;;;;;;1.80;0.85;;;12.50;58.20;;;;;;4976325;28;20019;-73
2024/02/09 11:26:52;;;;;;;2.17;1.15;;;12.50;57.40;;;;;;4976023;28;20033;-73
2024/02/09 11:29:19;;;;;;;6.45;1.65;;;12.50;57.90;;;;;;4958759;28;20018;-73
2024/02/09 11:32:01;;;;;;;3.38;1.30;;;12.40;58.60;;;;;;4976239;28;20050;-73
2024/02/09 11:34:28;;;;;;;3.63;1.20;;;12.40;58.80;;;;;;4976534;28;20030;-72
2024/02/09 11:36:58;;;;;;;3.95;1.42;;;12.40;59.10;;;;;;4976250;28;20102;-73
2024/02/09 11:39:25;;;;;;;6.35;1.52;;;12.40;59.70;;;;;;4976184;28;20035;-72
2024/02/09 11:41:51;;;;;;;4.50;1.13;;;12.40;59.40;;;;;;4976116;28;20027;-72
2024/02/09 11:44:23;;;;;;;4.57;1.52;;;12.40;59.50;;;;;;4975978;28;20158;-71
2024/02/09 11:46:52;;;;;;;2.80;1.27;;;12.30;59.80;;;;;;4975875;28;20122;-73
2024/02/09 11:49:19;;;;;;;2.63;1.17;;;12.30;59.70;;;;;;4975855;28;20034;-72
2024/02/09 11:51:45;;;;;;;3.47;1.10;;;12.30;60.10;;;;;;4976041;28;20033;-72
2024/02/09 11:54:12;;;;;;;3.28;1.48;;;12.30;60.20;;;;;;4976010;28;20069;-72
2024/02/09 11:56:40;;;;;;;4.22;1.02;;;12.40;60.00;;;;;;4975969;28;20473;-71
2024/02/09 11:59:05;;;;;;;2.25;1.00;;;12.40;60.20;;;;;;4975758;28;20034;-72
2024/02/09 12:01:32;;;;;;;3.17;1.02;;;12.40;60.00;;;;;;4975015;28;20023;-72
2024/02/09 12:03:59;;;;;;;2.88;0.93;;;12.50;60.60;;;;;;4975459;28;20038;-72
2024/02/09 12:06:27;;;;;;;2.40;0.90;;;12.50;59.80;;;;;;4975941;28;20109;-73
2024/02/09 12:08:53;;;;;;;2.97;1.13;;;12.50;60.40;;;;;;4975457;28;20106;-72
2024/02/09 12:11:20;;;;;;;3.70;1.10;;;12.60;58.80;;;;;;4975650;28;20047;-72
2024/02/09 12:13:49;;;;;;;3.20;0.98;;;12.60;59.30;;;;;;4975808;28;20034;-73
2024/02/09 12:16:18;;;;;;;4.20;0.80;;;12.70;59.00;;;;;;4975293;28;20051;-74
2024/02/09 12:18:45;;;;;;;2.45;0.85;;;12.70;58.90;;;;;;4975324;28;20031;-72
2024/02/09 12:21:10;;;;;;;2.83;0.95;;;12.70;58.20;;;;;;4975286;28;20019;-72
2024/02/09 12:23:37;;;;;;;2.78;1.20;;;12.60;58.30;;;;;;4975339;28;20062;-72
2024/02/09 12:26:05;;;;;;;2.05;0.90;;;12.60;58.30;;;;;;4975219;28;20090;-72
2024/02/09 12:28:33;;;;;;;2.55;1.13;;;12.60;58.60;;;;;;4975466;28;20034;-72
2024/02/09 12:30:58;;;;;;;4.97;0.90;;;12.60;58.30;;;;;;4975420;28;20031;-72
2024/02/09 12:33:24;;;;;;;3.10;1.00;;;12.70;58.70;;;;;;4975168;28;20031;-72
2024/02/09 12:35:50;;;;;;;2.25;1.30;;;12.70;58.40;;;;;;4975017;28;20019;-72
2024/02/09 12:38:20;;;;;;;3.20;1.00;;;12.80;58.40;;;;;;4975080;28;20057;-73
2024/02/09 12:40:46;;;;;;;2.05;0.88;;;12.80;58.30;;;;;;4974964;28;20019;-73
2024/02/09 12:43:18;;;;;;;2.30;1.00;;;12.80;58.60;;;;;;4975095;28;20542;-73
2024/02/09 12:45:44;;;;;;;2.85;1.10;;;12.80;57.30;;;;;;4975070;28;20111;-73
2024/02/09 12:48:12;;;;;;;5.38;1.15;;;12.80;57.70;;;;;;4974836;28;20030;-73
2024/02/09 12:50:37;;;;;;;3.47;1.40;;;12.90;57.50;;;;;;4974847;28;20109;-73
2024/02/09 12:53:03;;;;;;;1.85;0.70;;;12.80;57.40;;;;;;4974895;28;20130;-73
2024/02/09 12:55:30;;;;;;;3.15;1.10;;;12.90;56.80;;;;;;4974866;28;20431;-73
2024/02/09 12:57:56;;;;;;;5.35;1.35;;;12.90;57.00;;;;;;4974667;28;20023;-73
2024/02/09 13:00:21;;;;;;;2.65;1.10;;;12.90;57.40;;;;;;4974503;28;20029;-74
2024/02/09 13:02:47;;;;;;;2.30;1.00;;;12.90;56.40;;;;;;4973405;28;20031;-74
2024/02/09 13:05:12;;;;;;;2.20;1.00;;;13.00;56.90;;;;;;4974489;28;20038;-73
2024/02/09 13:07:38;;;;;;;2.28;0.90;;;13.10;57.00;;;;;;4974720;28;20456;-73
2024/02/09 13:10:04;;;;;;;2.50;1.33;;;13.10;56.00;;;;;;4973484;28;20082;-75
2024/02/09 13:12:30;;;;;;;4.03;1.00;;;13.20;56.20;;;;;;4974490;28;20109;-72
2024/02/09 13:14:55;;;;;;;3.72;1.02;;;13.30;55.40;;;;;;4973379;28;20058;-73
2024/02/09 13:17:22;;;;;;;2.75;0.75;;;13.30;55.40;;;;;;4974443;28;20479;-73
2024/02/09 13:19:48;;;;;;;1.25;0.63;;;13.40;54.30;;;;;;4974330;28;20456;-73
2024/02/09 13:22:15;;;;;;;4.63;1.02;;;13.40;54.80;;;;;;4957398;28;20062;-74
2024/02/09 13:24:42;;;;;;;4.20;0.68;;;13.40;55.30;;;;;;4974020;28;20356;-74
2024/02/09 13:27:15;;;;;;;2.13;0.80;;;13.40;55.00;;;;;;4974105;28;20365;-74
2024/02/09 13:29:42;;;;;;;3.50;0.90;;;13.30;54.70;;;;;;4974252;28;20025;-73
2024/02/09 13:32:12;;;;;;;4.57;0.80;;;13.30;54.50;;;;;;4974286;28;20027;-73
2024/02/09 13:34:37;;;;;;;2.38;0.60;;;13.30;54.70;;;;;;4974003;28;20030;-73
2024/02/09 13:37:04;;;;;;;1.35;0.60;;;13.30;54.70;;;;;;4974038;28;20030;-73
2024/02/09 13:39:30;;;;;;;3.22;1.10;;;13.30;54.90;;;;;;4972760;28;20042;-73
2024/02/09 13:41:55;;;;;;;2.80;0.80;;;13.30;55.40;;;;;;4974258;28;20031;-73
2024/02/09 13:44:21;;;;;;;4.38;0.80;;;13.30;56.00;;;;;;4973974;28;20524;-73
2024/02/09 13:46:46;;;;;;;3.08;0.80;;;13.20;54.90;;;;;;4974274;28;20043;-72
2024/02/09 13:49:12;;;;;;;1.67;0.98;;;13.10;56.30;;;;;;4974031;28;20365;-72
2024/02/09 13:51:37;;;;;;;1.10;0.77;;;13.10;55.80;;;;;;4974017;28;20495;-73
2024/02/09 13:54:05;;;;;;;2.38;0.90;;;13.10;56.70;;;;;;4956466;28;20113;-73
2024/02/09 13:56:32;;;;;;;1.15;0.50;;;13.10;58.50;;;;;;4973924;28;20037;-73
2024/02/09 13:59:00;;;;;;;2.40;0.85;;;13.00;56.00;;;;;;4973866;28;20026;-73
2024/02/09 14:01:26;;;;;;;1.77;0.80;;;13.00;57.60;;;;;;4973779;28;20029;-72
2024/02/09 14:03:54;;;;;;;2.42;1.00;;;13.00;57.10;;;;;;4973757;28;20101;-74
2024/02/09 14:06:19;;;;;;;1.92;0.93;;;13.00;57.10;;;;;;4973731;28;20030;-75
2024/02/09 14:08:47;;;;;;;2.42;0.85;;;13.00;58.20;;;;;;4973652;28;20369;-73
2024/02/09 14:11:16;;;;;;;3.13;0.70;;;12.90;57.70;;;;;;4972742;28;20023;-73
2024/02/09 14:13:42;;;;;;;2.17;0.60;;;12.90;58.70;;;;;;4956191;28;20035;-73
2024/02/09 14:16:08;;;;;;;1.20;0.45;;;12.90;58.20;;;;;;4973534;28;20134;-73
2024/02/09 14:18:34;;;;;;;3.13;0.50;;;12.90;57.90;;;;;;4973711;28;20022;-73
2024/02/09 14:21:00;;;;;;;1.38;1.05;;;12.90;58.30;;;;;;4973774;28;20109;-75
2024/02/09 14:23:28;;;;;;;1.20;0.57;;;12.90;58.70;;;;;;4973891;28;20026;-74
2024/02/09 14:25:56;;;;;;;1.13;0.50;;;12.80;58.40;;;;;;4959062;28;20448;-73
2024/02/09 14:28:23;;;;;;;1.30;0.55;;;12.80;57.20;;;;;;4977570;28;20078;-72
2024/02/09 14:30:49;;;;;;;2.22;0.55;;;12.80;57.90;;;;;;4960372;28;20046;-72
2024/02/09 14:33:15;;;;;;;0.93;0.40;;;12.80;57.80;;;;;;4960294;28;20360;-72
2024/02/09 14:35:41;;;;;;;2.70;0.60;;;12.80;58.00;;;;;;4960173;28;20030;-73